createdAt,value
2022-11-29T00:01:27.201Z,18.50
2022-11-29T00:03:54.669Z,19.17
2022-11-29T00:06:27.497Z,19.87
2022-11-29T00:08:56.199Z,18.73
2022-11-29T00:11:46.991Z,19.97
2022-11-29T00:14:16.305Z,19.17
2022-11-29T00:16:43.531Z,18.87
2022-11-29T00:19:12.312Z,19.07
2022-11-29T00:21:39.175Z,18.80
2022-11-29T00:24:06.575Z,18.77
2022-11-29T00:26:33.532Z,19.37
2022-11-29T00:29:00.644Z,18.03
2022-11-29T00:31:32.747Z,19.90
2022-11-29T00:34:01.668Z,20.73
2022-11-29T00:36:29.220Z,19.47
2022-11-29T00:38:56.483Z,20.90
2022-11-29T00:41:23.480Z,19.47
2022-11-29T00:43:50.506Z,21.10
2022-11-29T00:46:17.722Z,20.30
2022-11-29T00:48:44.677Z,20.27
2022-11-29T00:51:11.723Z,20.10
2022-11-29T00:53:39.132Z,20.53
2022-11-29T00:56:07.215Z,20.33
2022-11-29T00:58:35.863Z,20.20
2022-11-29T01:01:02.842Z,20.97
2022-11-29T01:03:29.791Z,24.27
2022-11-29T01:06:05.920Z,23.40
2022-11-29T01:08:32.972Z,22.20
2022-11-29T01:11:13.607Z,23.20
2022-11-29T01:13:41.175Z,23.37
2022-11-29T01:16:08.825Z,22.57
2022-11-29T01:18:36.346Z,22.93
2022-11-29T01:21:24.441Z,21.63
2022-11-29T01:23:52.460Z,22.20
2022-11-29T01:26:26.230Z,21.97
2022-11-29T01:28:55.056Z,22.53
2022-11-29T01:31:24.433Z,23.37
2022-11-29T01:33:55.251Z,22.00
2022-11-29T01:36:22.817Z,21.13
2022-11-29T01:38:49.725Z,23.00
2022-11-29T01:41:22.519Z,25.03
2022-11-29T01:44:01.394Z,23.93
2022-11-29T01:46:36.940Z,24.10
2022-11-29T01:49:20.620Z,23.43
2022-11-29T01:52:01.047Z,23.20
2022-11-29T01:54:30.059Z,24.03
2022-11-29T01:56:59.099Z,23.33
2022-11-29T01:59:28.796Z,23.50
2022-11-29T02:02:06.101Z,23.73
2022-11-29T02:04:35.660Z,23.73
2022-11-29T02:07:02.708Z,25.13
2022-11-29T02:09:29.608Z,25.13
2022-11-29T02:12:07.169Z,25.50
2022-11-29T02:15:08.198Z,26.30
2022-11-29T02:17:56.752Z,24.73
2022-11-29T02:20:55.337Z,25.00
2022-11-29T02:24:03.866Z,25.80
2022-11-29T02:26:55.443Z,25.83
2022-11-29T02:29:28.208Z,25.17
2022-11-29T02:32:16.450Z,28.20
2022-11-29T02:34:52.244Z,25.73
2022-11-29T02:37:34.254Z,31.17
2022-11-29T02:40:28.763Z,38.00
2022-11-29T02:43:10.950Z,24.60
2022-11-29T02:45:46.911Z,23.60
2022-11-29T02:48:25.830Z,21.80
2022-11-29T02:51:14.928Z,22.87
2022-11-29T02:54:09.372Z,22.27
2022-11-29T02:56:49.744Z,22.43
2022-11-29T02:59:16.861Z,22.83
2022-11-29T03:02:04.853Z,21.80
2022-11-29T03:05:13.871Z,21.87
2022-11-29T03:08:12.033Z,20.87
2022-11-29T03:11:14.546Z,21.83
2022-11-29T03:13:57.050Z,23.50
2022-11-29T03:16:41.318Z,22.70
2022-11-29T03:19:43.831Z,22.03
2022-11-29T03:22:25.966Z,22.30
2022-11-29T03:25:03.043Z,22.53
2022-11-29T03:27:55.632Z,24.43
2022-11-29T03:30:22.688Z,24.00
2022-11-29T03:33:03.537Z,24.83
2022-11-29T03:35:43.789Z,24.17
2022-11-29T03:38:28.721Z,22.87
2022-11-29T03:41:14.417Z,23.83
2022-11-29T03:43:51.862Z,23.77
2022-11-29T03:46:56.633Z,22.53
2022-11-29T03:49:39.133Z,22.43
2022-11-29T03:52:25.191Z,23.37
2022-11-29T03:55:16.928Z,22.20
2022-11-29T03:58:01.933Z,22.50
2022-11-29T04:00:44.982Z,21.90
2022-11-29T04:03:20.647Z,23.37
2022-11-29T04:05:59.457Z,22.57
2022-11-29T04:08:56.777Z,23.20
2022-11-29T04:11:29.842Z,23.30
2022-11-29T04:14:33.542Z,23.83
2022-11-29T04:17:22.102Z,20.97
2022-11-29T04:19:48.937Z,23.73
2022-11-29T04:22:48.874Z,23.67
2022-11-29T04:25:27.802Z,22.37
2022-11-29T04:28:16.273Z,25.03
2022-11-29T04:31:22.754Z,22.03
2022-11-29T04:34:11.065Z,21.37
2022-11-29T04:36:37.984Z,19.80
2022-11-29T04:39:07.895Z,20.57
2022-11-29T04:41:55.741Z,20.67
2022-11-29T04:44:41.525Z,21.23
2022-11-29T04:47:39.142Z,20.90
2022-11-29T04:50:17.389Z,20.33
2022-11-29T04:53:23.234Z,20.57
2022-11-29T04:55:56.771Z,20.37
2022-11-29T04:58:48.097Z,19.43
2022-11-29T05:01:29.625Z,20.93
2022-11-29T05:04:30.277Z,19.77
2022-11-29T05:07:06.400Z,20.30
2022-11-29T05:09:51.396Z,21.43
2022-11-29T05:12:38.125Z,21.47
2022-11-29T05:15:26.994Z,21.60
2022-11-29T05:18:03.188Z,21.50
2022-11-29T05:20:46.908Z,21.33
2022-11-29T05:23:28.882Z,21.37
2022-11-29T05:26:04.094Z,20.67
2022-11-29T05:28:43.939Z,20.70
2022-11-29T05:31:40.183Z,20.07
2022-11-29T05:34:39.615Z,20.90
2022-11-29T05:37:06.492Z,20.77
2022-11-29T05:40:02.599Z,22.30
2022-11-29T05:42:36.809Z,26.70
2022-11-29T05:45:23.117Z,28.13
2022-11-29T05:48:09.135Z,23.57
2022-11-29T05:50:46.020Z,20.03
2022-11-29T05:53:23.491Z,20.87
2022-11-29T05:56:04.388Z,20.80
2022-11-29T05:59:00.031Z,20.00
2022-11-29T06:01:45.757Z,19.93
2022-11-29T06:04:25.218Z,20.13
2022-11-29T06:07:19.207Z,21.93
2022-11-29T06:10:01.783Z,22.13
2022-11-29T06:12:31.940Z,20.70
2022-11-29T06:15:32.070Z,20.47
2022-11-29T06:18:27.260Z,22.23
2022-11-29T06:21:22.455Z,21.70
2022-11-29T06:24:01.249Z,21.73
2022-11-29T06:26:41.795Z,22.87
2022-11-29T06:29:44.125Z,23.67
2022-11-29T06:32:47.740Z,22.80
2022-11-29T06:35:52.120Z,21.47
2022-11-29T06:38:28.508Z,21.87
2022-11-29T06:41:01.871Z,22.80
2022-11-29T06:43:30.536Z,23.50
2022-11-29T06:46:10.585Z,24.37
2022-11-29T06:49:02.114Z,22.67
2022-11-29T06:51:49.573Z,23.27
2022-11-29T06:54:28.900Z,24.60
2022-11-29T06:57:06.246Z,23.80
2022-11-29T06:59:45.936Z,25.13
2022-11-29T07:02:36.875Z,24.67
2022-11-29T07:05:14.561Z,26.40
2022-11-29T07:07:42.467Z,44.53
2022-11-29T07:10:19.596Z,29.13
2022-11-29T07:12:48.815Z,25.50
2022-11-29T07:15:18.890Z,26.40
2022-11-29T07:18:19.672Z,25.60
2022-11-29T07:21:18.980Z,25.00
2022-11-29T07:23:57.492Z,25.63
2022-11-29T07:26:39.132Z,26.13
2022-11-29T07:29:24.157Z,25.80
2022-11-29T07:32:04.215Z,25.43
2022-11-29T07:35:10.185Z,24.53
2022-11-29T07:37:50.584Z,23.73
2022-11-29T07:40:27.205Z,24.70
2022-11-29T07:43:06.960Z,25.27
2022-11-29T07:45:37.523Z,25.10
2022-11-29T07:48:04.985Z,23.90
2022-11-29T07:50:32.119Z,24.33
2022-11-29T07:52:59.847Z,23.73
2022-11-29T07:55:27.004Z,23.60
2022-11-29T07:57:54.134Z,22.83
2022-11-29T08:00:21.556Z,23.93
2022-11-29T08:02:49.748Z,23.47
2022-11-29T08:05:17.316Z,20.57
2022-11-29T08:07:44.449Z,22.23
2022-11-29T08:10:14.494Z,21.80
2022-11-29T08:12:52.925Z,22.10
2022-11-29T08:15:21.542Z,21.30
2022-11-29T08:17:48.672Z,22.67
2022-11-29T08:20:16.636Z,21.20
2022-11-29T08:22:43.950Z,22.43
2022-11-29T08:25:11.646Z,23.73
2022-11-29T08:27:38.894Z,22.33
2022-11-29T08:30:07.569Z,22.50
2022-11-29T08:32:34.826Z,21.60
2022-11-29T08:35:01.913Z,21.90
2022-11-29T08:37:28.833Z,20.53
2022-11-29T08:39:56.108Z,19.53
2022-11-29T08:42:23.003Z,21.23
2022-11-29T08:44:49.864Z,20.57
2022-11-29T08:47:35.105Z,20.73
2022-11-29T08:50:17.122Z,19.67
2022-11-29T08:53:04.859Z,20.17
2022-11-29T08:55:35.019Z,20.67
2022-11-29T08:58:04.810Z,21.47
2022-11-29T09:00:32.280Z,18.83
2022-11-29T09:03:19.183Z,18.77
2022-11-29T09:05:46.074Z,19.83
2022-11-29T09:08:13.085Z,20.37
2022-11-29T09:10:41.353Z,21.30
2022-11-29T09:13:09.624Z,18.27
2022-11-29T09:15:42.129Z,20.13
2022-11-29T09:18:09.042Z,18.80
2022-11-29T09:20:36.022Z,18.30
2022-11-29T09:23:03.356Z,18.80
2022-11-29T09:25:30.334Z,19.63
2022-11-29T09:28:02.904Z,17.70
2022-11-29T09:30:31.691Z,18.57
2022-11-29T09:33:02.787Z,19.97
2022-11-29T09:35:30.521Z,17.70
2022-11-29T09:37:57.515Z,17.53
2022-11-29T09:40:32.172Z,16.67
2022-11-29T09:43:24.473Z,16.27
2022-11-29T09:46:02.062Z,14.50
2022-11-29T09:48:28.986Z,16.33
2022-11-29T09:51:17.518Z,15.03
2022-11-29T09:54:05.622Z,15.00
2022-11-29T09:56:45.706Z,14.27
2022-11-29T09:59:22.844Z,13.13
2022-11-29T10:02:14.850Z,19.50
2022-11-29T10:05:00.616Z,15.43
2022-11-29T10:07:34.922Z,14.77
2022-11-29T10:10:16.044Z,13.80
2022-11-29T10:12:52.209Z,13.10
2022-11-29T10:15:23.940Z,13.47
2022-11-29T10:18:12.754Z,13.47
2022-11-29T10:20:47.433Z,10.70
2022-11-29T10:23:24.780Z,11.50
2022-11-29T10:25:54.392Z,9.90
2022-11-29T10:28:25.823Z,10.67
2022-11-29T10:30:58.971Z,11.40
2022-11-29T10:33:32.442Z,10.50
2022-11-29T10:36:04.195Z,10.33
2022-11-29T10:38:31.822Z,10.07
2022-11-29T10:41:13.607Z,10.23
2022-11-29T10:43:40.667Z,10.27
2022-11-29T10:46:15.540Z,9.23
2022-11-29T10:48:42.649Z,9.70
2022-11-29T10:51:17.485Z,9.83
2022-11-29T10:53:46.330Z,9.60
2022-11-29T10:56:23.092Z,10.07
2022-11-29T10:59:20.538Z,10.30
2022-11-29T11:01:47.715Z,10.23
2022-11-29T11:04:36.705Z,12.90
2022-11-29T11:07:06.194Z,12.30
2022-11-29T11:09:47.119Z,12.93
2022-11-29T11:12:14.016Z,12.20
2022-11-29T11:14:41.929Z,13.57
2022-11-29T11:17:30.135Z,13.07
2022-11-29T11:20:19.941Z,14.13
2022-11-29T11:23:19.714Z,13.80
2022-11-29T11:25:50.031Z,14.83
2022-11-29T11:28:29.895Z,15.50
2022-11-29T11:31:08.747Z,14.60
2022-11-29T11:33:41.168Z,15.23
2022-11-29T11:36:17.279Z,14.87
2022-11-29T11:38:58.933Z,13.60
2022-11-29T11:42:01.907Z,14.40
2022-11-29T11:47:22.467Z,16.67
2022-11-29T11:50:04.268Z,13.70
2022-11-29T11:52:43.741Z,14.03
2022-11-29T11:55:22.081Z,14.23
2022-11-29T11:58:09.051Z,14.40
2022-11-29T12:03:57.454Z,14.80
2022-11-29T12:06:43.177Z,16.83
2022-11-29T12:09:18.667Z,16.77
2022-11-29T12:12:10.155Z,28.00
2022-11-29T12:14:53.039Z,20.57
2022-11-29T12:17:49.552Z,17.67
2022-11-29T12:20:25.028Z,15.30
2022-11-29T12:23:13.489Z,17.90
2022-11-29T12:26:05.483Z,17.70
2022-11-29T12:28:35.206Z,17.37
2022-11-29T12:31:24.171Z,17.87
2022-11-29T12:34:06.293Z,17.70
2022-11-29T12:36:59.452Z,17.00
2022-11-29T12:39:47.587Z,18.00
2022-11-29T12:42:31.083Z,18.67
2022-11-29T12:45:21.717Z,18.73
2022-11-29T12:47:51.880Z,18.43
2022-11-29T12:50:33.348Z,18.23
2022-11-29T12:53:27.886Z,18.93
2022-11-29T12:56:20.931Z,21.50
2022-11-29T12:59:06.678Z,25.97
2022-11-29T13:01:54.287Z,20.60
2022-11-29T13:04:38.151Z,19.97
2022-11-29T13:07:12.622Z,21.43
2022-11-29T13:10:23.868Z,20.70
2022-11-29T13:13:02.946Z,19.83
2022-11-29T13:15:50.127Z,22.87
2022-11-29T13:18:29.453Z,19.07
2022-11-29T13:21:13.264Z,20.83
2022-11-29T13:24:11.934Z,21.47
2022-11-29T13:26:43.167Z,21.53
2022-11-29T13:29:16.364Z,22.17
2022-11-29T13:31:44.531Z,22.03
2022-11-29T13:34:41.226Z,23.67
2022-11-29T13:37:23.943Z,20.53
2022-11-29T13:40:17.580Z,31.13
2022-11-29T13:42:52.569Z,19.40
2022-11-29T13:45:19.461Z,19.37
2022-11-29T13:47:54.788Z,20.53
2022-11-29T13:50:39.706Z,21.47
2022-11-29T13:53:13.563Z,24.17
2022-11-29T13:55:49.580Z,20.70
2022-11-29T13:58:30.903Z,18.40
2022-11-29T14:01:11.380Z,18.73
2022-11-29T14:03:45.025Z,18.00
2022-11-29T14:06:21.841Z,17.67
2022-11-29T14:09:19.239Z,18.90
2022-11-29T14:11:50.683Z,17.50
2022-11-29T14:14:29.974Z,19.10
2022-11-29T14:17:05.855Z,20.67
2022-11-29T14:19:35.196Z,27.13
2022-11-29T14:22:02.011Z,19.10
2022-11-29T14:24:34.830Z,18.90
2022-11-29T14:27:07.859Z,20.00
2022-11-29T14:29:53.979Z,17.43
2022-11-29T14:32:20.847Z,17.97
2022-11-29T14:35:08.121Z,18.23
2022-11-29T14:37:58.825Z,16.77
2022-11-29T14:40:41.538Z,16.00
2022-11-29T14:43:28.935Z,17.13
2022-11-29T14:46:14.475Z,18.60
2022-11-29T14:48:56.521Z,20.13
2022-11-29T14:51:29.695Z,35.57
2022-11-29T14:54:19.652Z,22.73
2022-11-29T14:56:47.384Z,24.13
2022-11-29T14:59:45.269Z,25.43
2022-11-29T15:02:18.303Z,31.67
2022-11-29T15:04:46.248Z,26.10
2022-11-29T15:07:19.492Z,26.67
2022-11-29T15:09:50.415Z,27.40
2022-11-29T15:12:23.032Z,29.23
2022-11-29T15:15:18.167Z,28.77
2022-11-29T15:18:11.166Z,26.67
2022-11-29T15:20:38.000Z,29.80
2022-11-29T15:23:09.707Z,30.93
2022-11-29T15:25:45.654Z,30.33
2022-11-29T15:28:38.922Z,36.07
2022-11-29T15:31:11.224Z,32.77
2022-11-29T15:33:41.535Z,31.77
2022-11-29T15:36:15.329Z,30.70
2022-11-29T15:38:46.348Z,30.63
2022-11-29T15:41:20.496Z,32.50
2022-11-29T15:43:53.683Z,31.57
2022-11-29T15:46:24.328Z,30.77
2022-11-29T15:48:51.224Z,30.70
2022-11-29T15:51:27.168Z,32.27
2022-11-29T15:54:22.422Z,32.00
2022-11-29T15:56:52.650Z,29.43
2022-11-29T15:59:42.448Z,36.83
2022-11-29T16:02:22.206Z,36.27
2022-11-29T16:04:53.912Z,28.63
2022-11-29T16:07:23.033Z,31.83
2022-11-29T16:09:58.089Z,35.03
2022-11-29T16:12:25.290Z,30.67
2022-11-29T16:15:00.759Z,38.63
2022-11-29T16:17:30.750Z,31.87
2022-11-29T16:20:19.092Z,31.33
2022-11-29T16:22:46.139Z,31.90
2022-11-29T16:25:20.130Z,35.80
2022-11-29T16:27:47.641Z,33.60
2022-11-29T16:30:22.606Z,33.23
2022-11-29T16:33:00.440Z,35.63
2022-11-29T16:35:33.758Z,38.47
2022-11-29T16:38:04.396Z,39.67
2022-11-29T16:40:34.022Z,34.37
2022-11-29T16:43:03.845Z,29.63
2022-11-29T16:45:38.022Z,30.57
2022-11-29T16:48:23.048Z,42.13
2022-11-29T16:51:13.372Z,66.00
2022-11-29T16:53:48.052Z,88.83
2022-11-29T16:56:17.653Z,38.73
2022-11-29T16:59:24.736Z,30.97
2022-11-29T17:01:37.010Z,28.30
2022-11-29T17:04:03.959Z,28.17
2022-11-29T17:06:31.092Z,27.17
2022-11-29T17:08:59.389Z,25.23
2022-11-29T17:11:26.647Z,26.03
2022-11-29T17:13:53.541Z,26.00
2022-11-29T17:16:22.727Z,24.53
2022-11-29T17:18:52.660Z,25.37
2022-11-29T17:21:20.378Z,27.67
2022-11-29T17:23:47.573Z,28.17
2022-11-29T17:26:15.494Z,28.57
2022-11-29T17:28:43.919Z,30.80
2022-11-29T17:31:22.659Z,28.20
2022-11-29T17:33:50.609Z,28.83
2022-11-29T17:36:19.793Z,33.03
2022-11-29T17:38:48.180Z,35.83
2022-11-29T17:41:17.875Z,28.40
2022-11-29T17:43:44.739Z,27.10
2022-11-29T17:46:13.988Z,29.17
2022-11-29T17:48:41.274Z,29.77
2022-11-29T17:51:28.764Z,27.27
2022-11-29T17:53:56.298Z,26.37
2022-11-29T17:56:25.355Z,27.30
2022-11-29T17:58:57.029Z,26.63
2022-11-29T18:01:29.446Z,27.83
2022-11-29T18:03:58.461Z,33.60
2022-11-29T18:06:28.439Z,38.60
2022-11-29T18:08:59.641Z,50.27
2022-11-29T18:11:41.601Z,47.70
2022-11-29T18:14:15.879Z,39.67
2022-11-29T18:16:44.945Z,33.63
2022-11-29T18:19:17.697Z,35.03
2022-11-29T18:21:44.840Z,32.37
2022-11-29T18:24:11.978Z,31.93
2022-11-29T18:26:39.624Z,33.23
2022-11-29T18:29:07.252Z,34.10
2022-11-29T18:31:37.196Z,31.67
2022-11-29T18:34:09.779Z,29.10
2022-11-29T18:36:45.205Z,29.93
2022-11-29T18:39:14.898Z,26.53
2022-11-29T18:41:47.727Z,28.20
2022-11-29T18:44:17.138Z,29.83
2022-11-29T18:46:45.001Z,28.83
2022-11-29T18:49:14.876Z,28.73
2022-11-29T18:51:45.967Z,28.13
2022-11-29T18:54:17.146Z,29.17
2022-11-29T18:56:45.228Z,26.87
2022-11-29T18:59:17.038Z,28.87
2022-11-29T19:01:45.929Z,30.50
2022-11-29T19:04:16.634Z,27.33
2022-11-29T19:06:43.992Z,26.30
2022-11-29T19:09:15.027Z,28.20
2022-11-29T19:11:42.279Z,31.17
2022-11-29T19:14:13.937Z,29.57
2022-11-29T19:16:44.397Z,27.30
2022-11-29T19:19:12.023Z,29.60
2022-11-29T19:21:39.975Z,27.13
2022-11-29T19:24:13.746Z,29.47
2022-11-29T19:26:44.259Z,28.97
2022-11-29T19:29:12.070Z,30.27
2022-11-29T19:31:39.445Z,31.43
2022-11-29T19:34:06.927Z,27.80
2022-11-29T19:36:34.159Z,30.20
2022-11-29T19:39:01.870Z,27.77
2022-11-29T19:41:34.015Z,26.80
2022-11-29T19:44:03.999Z,25.67
2022-11-29T19:46:36.865Z,26.07
2022-11-29T19:49:05.203Z,26.13
2022-11-29T19:51:32.766Z,26.60
2022-11-29T19:54:02.393Z,31.87
2022-11-29T19:56:30.258Z,30.27
2022-11-29T19:58:57.325Z,27.17
2022-11-29T20:01:35.938Z,26.33
2022-11-29T20:04:07.452Z,26.07
2022-11-29T20:06:35.017Z,26.27
2022-11-29T20:09:02.255Z,36.63
2022-11-29T20:11:29.210Z,25.57
2022-11-29T20:13:58.481Z,25.13
2022-11-29T20:16:27.297Z,26.67
2022-11-29T20:18:54.673Z,26.03
2022-11-29T20:21:27.160Z,24.07
2022-11-29T20:24:04.712Z,25.37
2022-11-29T20:26:33.912Z,27.17
2022-11-29T20:29:02.176Z,28.13
2022-11-29T20:31:29.489Z,27.43
2022-11-29T20:33:57.619Z,27.67
2022-11-29T20:37:08.107Z,25.37
2022-11-29T20:39:38.039Z,30.50
2022-11-29T20:42:26.018Z,29.20
2022-11-29T20:44:58.589Z,29.37
2022-11-29T20:47:40.332Z,33.80
2022-11-29T20:50:13.447Z,28.03
2022-11-29T20:53:17.482Z,27.90
2022-11-29T20:55:47.970Z,27.87
2022-11-29T20:58:15.939Z,28.23
2022-11-29T21:00:42.911Z,27.77
2022-11-29T21:03:14.168Z,29.03
2022-11-29T21:05:41.059Z,28.77
2022-11-29T21:08:08.182Z,27.87
2022-11-29T21:10:35.498Z,28.83
2022-11-29T21:13:02.988Z,27.77
2022-11-29T21:15:30.323Z,28.07
2022-11-29T21:17:57.531Z,28.27
2022-11-29T21:20:26.668Z,28.33
2022-11-29T21:23:12.677Z,28.23
2022-11-29T21:26:00.568Z,29.40
2022-11-29T21:28:34.212Z,29.37
2022-11-29T21:31:01.271Z,28.77
2022-11-29T21:33:28.452Z,28.50
2022-11-29T21:35:57.988Z,29.17
2022-11-29T21:38:26.848Z,28.37
2022-11-29T21:40:53.768Z,29.47
2022-11-29T21:43:22.774Z,29.47
2022-11-29T21:45:52.391Z,27.90
2022-11-29T21:48:37.997Z,29.40
2022-11-29T21:51:09.765Z,30.83
2022-11-29T21:53:38.072Z,29.17
2022-11-29T21:56:07.872Z,30.93
2022-11-29T21:58:36.109Z,29.03
2022-11-29T22:01:20.040Z,29.47
2022-11-29T22:03:47.542Z,30.37
2022-11-29T22:06:20.797Z,28.37
2022-11-29T22:08:48.544Z,28.00
2022-11-29T22:11:30.458Z,29.27
2022-11-29T22:14:15.193Z,29.37
2022-11-29T22:17:01.310Z,28.87
2022-11-29T22:19:28.293Z,29.23
2022-11-29T22:21:57.703Z,32.07
2022-11-29T22:24:26.760Z,32.20
2022-11-29T22:26:54.386Z,33.23
2022-11-29T22:29:22.097Z,33.40
2022-11-29T22:31:52.791Z,32.37
2022-11-29T22:34:20.266Z,32.33
2022-11-29T22:36:47.223Z,32.50
2022-11-29T22:39:14.854Z,32.87
2022-11-29T22:41:42.024Z,32.37
2022-11-29T22:44:09.543Z,33.10
2022-11-29T22:46:40.209Z,34.73
2022-11-29T22:49:07.634Z,34.43
2022-11-29T22:51:36.404Z,35.20
2022-11-29T22:54:06.190Z,34.27
2022-11-29T22:56:35.572Z,35.13
2022-11-29T22:59:02.721Z,34.10
2022-11-29T23:01:31.411Z,33.73
2022-11-29T23:04:00.399Z,35.50
2022-11-29T23:06:33.035Z,37.10
2022-11-29T23:09:12.227Z,34.13
2022-11-29T23:11:39.294Z,37.27
2022-11-29T23:14:06.363Z,35.70
2022-11-29T23:16:33.612Z,36.17
2022-11-29T23:19:02.786Z,35.37
2022-11-29T23:21:32.305Z,34.47
2022-11-29T23:24:00.941Z,36.17
2022-11-29T23:26:40.179Z,35.63
2022-11-29T23:29:10.183Z,36.60
2022-11-29T23:31:37.520Z,38.90
2022-11-29T23:34:04.439Z,37.63
2022-11-29T23:36:31.821Z,41.30
2022-11-29T23:38:58.752Z,41.90
2022-11-29T23:41:25.985Z,41.30
2022-11-29T23:43:52.887Z,40.30
2022-11-29T23:46:22.459Z,42.43
2022-11-29T23:48:50.177Z,41.33
2022-11-29T23:51:18.524Z,39.47
2022-11-29T23:53:46.807Z,38.60
2022-11-29T23:56:15.779Z,37.57
2022-11-29T23:58:44.082Z,37.80
